^^
Station Historical Data
Daily Summary for June 11, 2017 Units:  Metric    English   Both
« Previous Day
Next Day »
Daily Weekly Monthly Yearly Custom
  High: Low: Average:
Temperature: 19.1 °C 5.1 °C 10.9 °C
Dew Point: 6.1 °C 0.9 °C 3.9 °C
Humidity: 91% 34% 65%
Wind Speed: 13km/h 0km/h 1.1km/h
Wind Gust: 19.3km/h - -
Wind- - ENE
Pressure: 1023.2 hPa 1018.8 hPa -
Precipitation: 0 mm    
Historical Graphs
 
 
Tabular Data for June 11, 2017
Time Temperature Dew Point Pressure Wind Wind Speed Wind Gust Humidity Rainfall Rate (Hourly) solar Conditions
00:01 8.1 °C 4.3 °C 1019.9 hPa Calm     77% 0 mm 0.0 W/m2
00:07 8 °C 3.8 °C 1019.9 hPa Calm     75% 0 mm 0.0 W/m2
00:12 7.8 °C 3.5 °C 1019.9 hPa Calm     74% 0 mm 0.0 W/m2
00:17 7.7 °C 3.7 °C 1019.9 hPa Calm     76% 0 mm 0.0 W/m2
00:22 7.7 °C 4.1 °C 1019.9 hPa Calm     78% 0 mm 0.0 W/m2
00:27 7.9 °C 4.5 °C 1019.9 hPa Calm     79% 0 mm 0.0 W/m2
00:32 8 °C 4 °C 1019.9 hPa Calm     76% 0 mm 0.0 W/m2
00:37 8 °C 4.4 °C 1019.9 hPa Calm     78% 0 mm 0.0 W/m2
00:42 8.1 °C 4.7 °C 1019.9 hPa Calm     79% 0 mm 0.0 W/m2
00:47 8.1 °C 4.3 °C 1019.9 hPa Calm     77% 0 mm 0.0 W/m2
00:53 8.1 °C 4.5 °C 1019.9 hPa Calm     78% 0 mm 0.0 W/m2
00:58 8.1 °C 4.7 °C 1019.5 hPa Calm     79% 0 mm 0.0 W/m2
01:03 8.4 °C 5.2 °C 1019.9 hPa Calm     80% 0 mm 0.0 W/m2
01:08 8.7 °C 5.3 °C 1019.9 hPa Calm     79% 0 mm 0.0 W/m2
01:13 8.6 °C 4.6 °C 1019.9 hPa Calm     76% 0 mm 0.0 W/m2
01:18 8.4 °C 4.6 °C 1019.9 hPa Calm     77% 0 mm 0.0 W/m2
01:23 8.2 °C 4.4 °C 1019.5 hPa Calm     77% 0 mm 0.0 W/m2
01:34 8.1 °C 4.9 °C 1019.5 hPa Calm     80% 0 mm 0.0 W/m2
01:39 8.1 °C 4.9 °C 1019.5 hPa Calm     80% 0 mm 0.0 W/m2
01:44 8.1 °C 5 °C 1019.5 hPa Calm     81% 0 mm 0.0 W/m2
01:54 7.9 °C 4.5 °C 1019.5 hPa Calm     79% 0 mm 0.0 W/m2
02:10 7.9 °C 5.5 °C 1019.5 hPa Calm     85% 0 mm 0.0 W/m2
02:15 8.3 °C 5.6 °C 1019.9 hPa Calm     83% 0 mm 0.0 W/m2
02:20 8.3 °C 5.4 °C 1019.5 hPa Calm     82% 0 mm 0.0 W/m2
02:25 8.3 °C 5.6 °C 1019.5 hPa Calm     83% 0 mm 0.0 W/m2
02:30 8.3 °C 5.6 °C 1019.5 hPa SSW 9.7 km/h 12.9 km/h 83% 0 mm 0.0 W/m2
02:35 8.3 °C 5.6 °C 1019.5 hPa SSW 7.9 km/h 9.7 km/h 83% 0 mm 0.0 W/m2
02:41 8.2 °C 5.5 °C 1019.5 hPa SSW 3.2 km/h 6.4 km/h 83% 0 mm 0.0 W/m2
02:45 8.2 °C 5.7 °C 1019.5 hPa SSW 6.4 km/h 11.3 km/h 84% 0 mm 0.0 W/m2
02:50 8.3 °C 5.9 °C 1019.5 hPa SSW 3.2 km/h 6.4 km/h 85% 0 mm 0.0 W/m2
02:56 8.2 °C 5.5 °C 1019.5 hPa Calm     83% 0 mm 0.0 W/m2
03:01 8 °C 5.5 °C 1019.5 hPa Calm     84% 0 mm 0.0 W/m2
03:06 7.8 °C 5.3 °C 1019.5 hPa Calm     84% 0 mm 0.0 W/m2
03:12 7.6 °C 5.2 °C 1019.9 hPa Calm     85% 0 mm 0.0 W/m2
03:22 7.8 °C 5.6 °C 1019.9 hPa Calm     86% 0 mm 0.0 W/m2
03:32 7.5 °C 5.1 °C 1020.5 hPa Calm     85% 0 mm 0.0 W/m2
03:42 7.3 °C 5.1 °C 1020.2 hPa Calm     86% 0 mm 0.0 W/m2
03:48 7.4 °C 5.4 °C 1019.9 hPa Calm     87% 0 mm 0.0 W/m2
03:53 7.3 °C 5.1 °C 1019.9 hPa Calm     86% 0 mm 0.0 W/m2
04:03 7.2 °C 5 °C 1019.5 hPa Calm     86% 0 mm 0.0 W/m2
04:08 7.2 °C 5 °C 1019.5 hPa Calm     86% 0 mm 0.0 W/m2
04:13 7.1 °C 4.9 °C 1019.2 hPa Calm     86% 0 mm 0.0 W/m2
04:18 7.1 °C 5.1 °C 1019.2 hPa Calm     87% 0 mm 0.0 W/m2
04:24 7.3 °C 5.4 °C 1018.8 hPa Calm     88% 0 mm 0.0 W/m2
04:34 8 °C 5.6 °C 1018.8 hPa Calm     85% 0 mm 0.0 W/m2
04:40 8 °C 5.5 °C 1018.8 hPa Calm     84% 0 mm 0.0 W/m2
04:45 7.9 °C 5.4 °C 1019.2 hPa Calm     84% 0 mm 0.0 W/m2
04:50 7.8 °C 5.3 °C 1019.2 hPa Calm     84% 0 mm 0.0 W/m2
04:56 7.6 °C 5.1 °C 1019.5 hPa Calm     84% 0 mm 0.0 W/m2
05:01 7.5 °C 5.1 °C 1019.5 hPa Calm     85% 0 mm 0.0 W/m2
05:06 7.3 °C 4.6 °C 1019.5 hPa Calm     83% 0 mm 0.0 W/m2
05:11 6.9 °C 4.2 °C 1019.9 hPa Calm     83% 0 mm 0.0 W/m2
05:21 5.8 °C 3.3 °C 1019.9 hPa Calm     84% 0 mm 0.0 W/m2
05:27 5.6 °C 3.3 °C 1019.9 hPa Calm     85% 0 mm 0.0 W/m2
05:32 5.4 °C 3.4 °C 1020.2 hPa Calm     87% 0 mm 0.0 W/m2
05:36 5.3 °C 3.3 °C 1020.5 hPa Calm     87% 0 mm 0.0 W/m2
06:08 5.1 °C 3.4 °C 1020.9 hPa Calm     89% 0 mm 0.0 W/m2
06:13 5.1 °C 3.6 °C 1020.9 hPa Calm     90% 0 mm 0.0 W/m2
06:23 5.1 °C 3.6 °C 1021.2 hPa Calm     90% 0 mm 0.0 W/m2
06:30 5.1 °C 3.6 °C 1021.2 hPa Calm     90% 0 mm 0.0 W/m2
07:09 5.6 °C 4.2 °C 1021.9 hPa Calm     91% 0 mm 16.0 W/m2
07:14 5.8 °C 4.1 °C 1021.9 hPa Calm     89% 0 mm 18.0 W/m2
07:20 5.9 °C 4.2 °C 1022.2 hPa Calm     89% 0 mm 46.0 W/m2
07:25 6.1 °C 4.4 °C 1022.2 hPa Calm     89% 0 mm 58.0 W/m2
07:30 6.3 °C 4.5 °C 1022.2 hPa Calm     88% 0 mm 104.0 W/m2
07:39 6.7 °C 4.5 °C 1022.2 hPa Calm   4.8 km/h 86% 0 mm 116.0 W/m2
07:46 7.6 °C 4.9 °C 1022.2 hPa Calm     83% 0 mm 151.0 W/m2
08:34 10.3 °C 5.9 °C 1022.9 hPa Calm     74% 0 mm 301.0 W/m2
08:48 10.6 °C 6 °C 1022.9 hPa Calm     73% 0 mm 329.0 W/m2
08:57 11.2 °C 6.1 °C 1022.9 hPa Calm     71% 0 mm 366.0 W/m2
09:17 11.8 °C 6.1 °C 1022.9 hPa Calm   6.4 km/h 68% 0 mm 406.0 W/m2
09:27 12.4 °C 6 °C 1022.9 hPa SE 1.4 km/h 11.3 km/h 65% 0 mm 438.0 W/m2
09:37 12.7 °C 6.1 °C 1022.9 hPa ESE 11.1 km/h 16.1 km/h 64% 0 mm 457.0 W/m2
09:53 12.9 °C 6 °C 1023.2 hPa ESE 6.4 km/h 11.3 km/h 63% 0 mm 471.0 W/m2
10:08 13.3 °C 5.7 °C 1023.2 hPa East 1.4 km/h 14.5 km/h 60% 0 mm 487.0 W/m2
10:23 13.9 °C 5.8 °C 1023.2 hPa Calm   9.7 km/h 58% 0 mm 464.0 W/m2
10:36 14.2 °C 5.5 °C 1022.9 hPa ENE 4.7 km/h 9.7 km/h 56% 0 mm 552.0 W/m2
10:44 14.6 °C 5.4 °C 1022.9 hPa NE 6.4 km/h 19.3 km/h 54% 0 mm 550.0 W/m2
12:59 18.1 °C 3.6 °C 1019.5 hPa Calm   17.7 km/h 38% 0 mm 543.0 W/m2
13:17 18.2 °C 3.3 °C 1019.5 hPa North 9.7 km/h 9.7 km/h 37% 0 mm 533.0 W/m2
13:27 18.6 °C 3.6 °C 1019.5 hPa North 6.4 km/h 8 km/h 37% 0 mm 517.0 W/m2
13:37 18.6 °C 3.2 °C 1019.5 hPa North 9.7 km/h 19.3 km/h 36% 0 mm 504.0 W/m2
13:47 18.7 °C 3.7 °C 1019.2 hPa North 3.2 km/h 19.3 km/h 37% 0 mm 483.0 W/m2
13:57 18.8 °C 3 °C 1019.2 hPa North 6.4 km/h 14.5 km/h 35% 0 mm 469.0 W/m2
14:05 18.9 °C 3.1 °C 1019.2 hPa North 13 km/h 17.7 km/h 35% 0 mm 445.0 W/m2
14:11 19.1 °C 2.9 °C 1019.2 hPa North 9.7 km/h 14.5 km/h 34% 0 mm 439.0 W/m2
16:46 19.1 °C 3.7 °C 1019.5 hPa Calm     36% 0 mm 21.0 W/m2
16:56 18.8 °C 3.4 °C 1019.2 hPa Calm     36% 0 mm 11.0 W/m2
17:06 18.6 °C 3.2 °C 1019.2 hPa Calm     36% 0 mm 0.0 W/m2
17:14 18.4 °C 3.1 °C 1019.2 hPa Calm   1.6 km/h 36% 0 mm 0.0 W/m2
17:23 18.2 °C 2.9 °C 1019.2 hPa Calm     36% 0 mm 0.0 W/m2
17:28 18 °C 3.1 °C 1019.2 hPa Calm     37% 0 mm 0.0 W/m2
17:34 17.8 °C 2.9 °C 1019.2 hPa Calm     37% 0 mm 0.0 W/m2
17:44 16.9 °C 2.5 °C 1019.2 hPa Calm     38% 0 mm 0.0 W/m2
17:58 15.9 °C 2.7 °C 1019.2 hPa Calm     41% 0 mm 0.0 W/m2
18:10 15.3 °C 2.5 °C 1019.2 hPa Calm     42% 0 mm 0.0 W/m2
18:24 14.8 °C 2.3 °C 1019.2 hPa Calm     43% 0 mm 0.0 W/m2
18:46 14.6 °C 2.5 °C 1019.5 hPa Calm     44% 0 mm 0.0 W/m2
19:02 14.4 °C 2.6 °C 1019.5 hPa Calm     45% 0 mm 0.0 W/m2
19:17 14.4 °C 2.6 °C 1019.5 hPa Calm     45% 0 mm 0.0 W/m2
19:26 13.6 °C 2.2 °C 1019.9 hPa Calm     46% 0 mm 0.0 W/m2
19:41 13.4 °C 2.6 °C 1019.9 hPa Calm     48% 0 mm 0.0 W/m2
19:57 13.7 °C 2.6 °C 1019.9 hPa Calm     47% 0 mm 0.0 W/m2
20:18 13.5 °C 2.7 °C 1019.9 hPa Calm     48% 0 mm 0.0 W/m2
20:28 13.9 °C 2.8 °C 1019.5 hPa Calm   6.4 km/h 47% 0 mm 0.0 W/m2
20:38 14 °C 2.9 °C 1019.5 hPa Calm   9.7 km/h 47% 0 mm 0.0 W/m2
20:48 13.9 °C 2.8 °C 1019.9 hPa Calm   6.4 km/h 47% 0 mm 0.0 W/m2
20:59 13.7 °C 2.6 °C 1019.9 hPa Calm     47% 0 mm 0.0 W/m2
21:09 13.7 °C 2.6 °C 1019.9 hPa North 6.4 km/h 11.3 km/h 47% 0 mm 0.0 W/m2
21:37 14 °C 1.9 °C 1019.9 hPa Calm     44% 0 mm 0.0 W/m2
21:43 13.9 °C 1.8 °C 1019.9 hPa Calm     44% 0 mm 0.0 W/m2
22:02 13.8 °C 1.8 °C 1019.5 hPa Calm     44% 0 mm 0.0 W/m2
22:16 13.6 °C 1.6 °C 1019.5 hPa Calm     44% 0 mm 0.0 W/m2
22:21 13.4 °C 1.4 °C 1019.5 hPa Calm     44% 0 mm 0.0 W/m2
22:27 13.3 °C 1.3 °C 1019.9 hPa Calm     44% 0 mm 0.0 W/m2
22:37 13.2 °C 1.2 °C 1019.5 hPa North 6.4 km/h 9.7 km/h 44% 0 mm 0.0 W/m2
22:42 13.2 °C 1.2 °C 1019.5 hPa North 6.4 km/h 8 km/h 44% 0 mm 0.0 W/m2
22:48 13.2 °C 1.2 °C 1019.5 hPa Calm     44% 0 mm 0.0 W/m2
22:53 13.1 °C 1.1 °C 1019.5 hPa Calm     44% 0 mm 0.0 W/m2
22:58 12.9 °C 0.9 °C 1019.5 hPa Calm     44% 0 mm 0.0 W/m2
23:03 12.8 °C 1.2 °C 1019.5 hPa Calm     45% 0 mm 0.0 W/m2
23:08 12.8 °C 1.2 °C 1019.5 hPa Calm     45% 0 mm 0.0 W/m2
23:13 12.8 °C 1.2 °C 1019.5 hPa Calm     45% 0 mm 0.0 W/m2
23:18 12.9 °C 1.2 °C 1019.5 hPa North 3.2 km/h 8 km/h 45% 0 mm 0.0 W/m2
23:24 12.9 °C 1.2 °C 1019.5 hPa Calm   6.4 km/h 45% 0 mm 0.0 W/m2
23:29 12.8 °C 1.2 °C 1019.5 hPa Calm   6.4 km/h 45% 0 mm 0.0 W/m2
23:34 12.8 °C 1.2 °C 1019.5 hPa Calm     45% 0 mm 0.0 W/m2
23:40 12.7 °C 1.4 °C 1019.5 hPa North 1.4 km/h 3.2 km/h 46% 0 mm 0.0 W/m2
23:50 12.8 °C 1.5 °C 1019.5 hPa Calm   6.4 km/h 46% 0 mm 0.0 W/m2
Canyon Roadhouse, Fishriver Canyon, Namibia
Compliments of Weather Underground - 2.25 mb